Time;durP1;ratioP1;P1;durP2;ratioP2;P2;SDS_P1;SDS_P2;PMS_P1;PMS_P2;Temp;Humidity;BMP_temperature;BMP_pressure;BME280_temperature;BME280_humidity;BME280_pressure;Samples;Min_cycle;Max_cycle;Signal;HPM_P1;HPM_P2
2021/01/03 00:01:32;;;;;;;59.97;32.80;;;-1.30;98.00;;;;;;5035452;28;20453;-67
2021/01/03 00:03:58;;;;;;;49.08;29.15;;;-1.30;98.00;;;;;;5033841;28;20749;-67
2021/01/03 00:06:24;;;;;;;57.67;30.60;;;-1.30;98.00;;;;;;5033855;28;20040;-68
2021/01/03 00:08:50;;;;;;;61.72;33.83;;;-1.30;98.00;;;;;;5026514;28;20037;-67
2021/01/03 00:11:15;;;;;;;51.28;30.05;;;-1.30;98.00;;;;;;5032385;28;20033;-66
2021/01/03 00:13:41;;;;;;;56.10;31.67;;;-1.30;98.00;;;;;;5032894;28;20025;-68
2021/01/03 00:16:07;;;;;;;53.13;30.77;;;-1.30;98.00;;;;;;5033990;28;20334;-68
2021/01/03 00:18:32;;;;;;;54.15;31.35;;;-1.30;98.00;;;;;;5049269;28;20033;-66
2021/01/03 00:20:58;;;;;;;52.58;31.35;;;-1.20;98.00;;;;;;5017660;28;20382;-67
2021/01/03 00:23:23;;;;;;;57.22;31.50;;;-1.30;98.00;;;;;;5023506;28;20014;-68
2021/01/03 00:25:52;;;;;;;55.38;31.85;;;-1.30;98.00;;;;;;5027629;28;20046;-68
2021/01/03 00:28:18;;;;;;;56.92;31.80;;;-1.30;98.00;;;;;;5031719;28;20323;-65
2021/01/03 00:30:43;;;;;;;59.92;32.92;;;-1.30;98.00;;;;;;5017278;28;20034;-67
2021/01/03 00:33:09;;;;;;;54.13;30.52;;;-1.30;98.00;;;;;;5024677;28;20029;-68
2021/01/03 00:35:35;;;;;;;52.75;31.10;;;-1.30;98.00;;;;;;5020094;28;20026;-66
2021/01/03 00:38:05;;;;;;;55.63;32.38;;;-1.30;98.00;;;;;;5022396;28;20028;-68
2021/01/03 00:40:31;;;;;;;52.10;29.58;;;-1.30;98.00;;;;;;5034029;28;20079;-67
2021/01/03 00:42:57;;;;;;;58.42;30.60;;;-1.30;98.00;;;;;;5021474;28;20076;-67
2021/01/03 00:45:23;;;;;;;56.30;31.70;;;-1.30;98.00;;;;;;5030721;28;20502;-66
2021/01/03 00:47:48;;;;;;;58.28;32.28;;;-1.30;98.00;;;;;;5028985;28;20045;-66
2021/01/03 00:50:15;;;;;;;56.60;30.85;;;-1.30;98.00;;;;;;5026942;28;20057;-67
2021/01/03 00:52:41;;;;;;;50.35;29.65;;;-1.20;98.00;;;;;;5035147;28;20419;-66
2021/01/03 00:55:08;;;;;;;52.38;28.90;;;-1.30;98.00;;;;;;5022948;28;20034;-65
2021/01/03 00:57:34;;;;;;;53.00;30.05;;;-1.20;98.00;;;;;;5030444;28;20021;-67
2021/01/03 01:00:01;;;;;;;57.67;29.75;;;-1.30;98.00;;;;;;5036254;28;20028;-66
2021/01/03 01:02:26;;;;;;;50.28;30.50;;;-1.30;98.00;;;;;;5037777;28;20033;-65
2021/01/03 01:04:52;;;;;;;49.55;28.98;;;-1.30;98.00;;;;;;5040781;28;20422;-66
2021/01/03 01:07:21;;;;;;;59.70;32.53;;;-1.30;98.00;;;;;;5026675;28;20034;-66
2021/01/03 01:09:46;;;;;;;53.58;30.80;;;-1.30;98.00;;;;;;5035419;28;20418;-68
2021/01/03 01:12:12;;;;;;;57.90;33.78;;;-1.30;98.00;;;;;;5035129;28;20030;-68
2021/01/03 01:14:37;;;;;;;54.97;32.50;;;-1.30;98.00;;;;;;5029134;28;20021;-67
2021/01/03 01:17:05;;;;;;;60.10;32.97;;;-1.30;98.00;;;;;;5023857;28;20033;-68
2021/01/03 01:19:31;;;;;;;61.97;31.38;;;-1.30;98.00;;;;;;5023134;28;20096;-67
2021/01/03 01:21:57;;;;;;;55.50;31.65;;;-1.30;98.00;;;;;;5035479;28;20057;-68
2021/01/03 01:24:22;;;;;;;52.30;30.42;;;-1.30;98.00;;;;;;5035373;28;20025;-67
2021/01/03 01:26:48;;;;;;;53.05;32.08;;;-1.30;98.00;;;;;;5027386;28;20149;-67
2021/01/03 01:29:13;;;;;;;53.28;30.85;;;-1.30;98.00;;;;;;5024480;28;20045;-69
2021/01/03 01:31:39;;;;;;;57.20;32.47;;;-1.20;98.00;;;;;;5035142;28;20021;-67
2021/01/03 01:34:04;;;;;;;45.45;29.48;;;-1.20;98.00;;;;;;5035544;28;20021;-67
2021/01/03 01:36:30;;;;;;;56.38;31.92;;;-1.20;98.00;;;;;;5035289;28;20488;-67
2021/01/03 01:38:56;;;;;;;54.75;31.15;;;-1.20;98.00;;;;;;5035051;28;20072;-68
2021/01/03 01:41:21;;;;;;;48.05;29.50;;;-1.30;98.00;;;;;;5033564;28;20025;-68
2021/01/03 01:43:47;;;;;;;55.90;31.35;;;-1.30;98.00;;;;;;5034584;28;20033;-68
2021/01/03 01:46:29;;;;;;;51.08;30.10;;;-1.30;98.00;;;;;;5034080;28;20033;-67
2021/01/03 01:48:55;;;;;;;53.42;29.10;;;-1.30;98.00;;;;;;5035108;28;20030;-67
2021/01/03 01:51:34;;;;;;;51.15;28.08;;;-1.30;98.00;;;;;;5034338;28;20041;-68
2021/01/03 01:54:07;;;;;;;45.30;28.45;;;-1.40;98.00;;;;;;5035050;28;20321;-68
2021/01/03 01:56:59;;;;;;;50.42;27.65;;;-1.30;98.00;;;;;;5033586;28;20029;-68
2021/01/03 01:59:43;;;;;;;46.83;29.27;;;-1.30;98.00;;;;;;5034526;28;20040;-67
2021/01/03 02:02:09;;;;;;;;;;;-1.40;98.00;;;;;;5034320;28;20095;-68
2021/01/03 02:04:38;;;;;;;52.67;30.02;;;-1.30;98.00;;;;;;5034842;28;19909;-67
2021/01/03 02:07:24;;;;;;;43.13;28.23;;;-1.30;98.00;;;;;;5039250;28;20338;-66
2021/01/03 02:10:13;;;;;;;48.50;28.58;;;-1.30;98.00;;;;;;5038041;28;20430;-68
2021/01/03 02:12:44;;;;;;;51.08;28.63;;;-1.30;98.00;;;;;;5034277;28;20064;-67
2021/01/03 02:15:25;;;;;;;54.40;31.08;;;-1.30;98.00;;;;;;5038088;28;20080;-66
2021/01/03 02:17:51;;;;;;;46.03;27.08;;;-1.40;98.00;;;;;;5039090;28;20108;-67
2021/01/03 02:20:17;;;;;;;49.35;30.27;;;-1.40;98.00;;;;;;5039346;28;20467;-66
2021/01/03 02:22:54;;;;;;;45.97;28.33;;;-1.40;98.00;;;;;;5038306;28;20021;-67
2021/01/03 02:25:22;;;;;;;49.53;29.42;;;-1.40;98.00;;;;;;5037974;28;20034;-67
2021/01/03 02:28:14;;;;;;;53.92;30.02;;;-1.40;98.00;;;;;;5038604;28;20083;-67
2021/01/03 02:30:43;;;;;;;48.30;30.05;;;-1.40;98.00;;;;;;5038699;28;20036;-67
2021/01/03 02:33:24;;;;;;;52.53;30.17;;;-1.40;98.00;;;;;;5037216;28;20041;-66
2021/01/03 02:35:58;;;;;;;52.67;29.10;;;-1.40;98.00;;;;;;5039057;28;20025;-67
2021/01/03 02:38:27;;;;;;;52.15;29.23;;;-1.40;98.00;;;;;;5038464;28;20418;-65
2021/01/03 02:40:53;;;;;;;45.38;27.35;;;-1.40;98.00;;;;;;5036853;28;20041;-65
2021/01/03 02:43:18;;;;;;;45.65;25.90;;;-1.40;98.00;;;;;;5036100;28;20071;-66
2021/01/03 02:45:44;;;;;;;50.03;28.17;;;-1.40;98.00;;;;;;5038225;28;20095;-67
2021/01/03 02:48:16;;;;;;;43.35;25.50;;;-1.40;98.00;;;;;;5037801;28;20040;-65
2021/01/03 02:50:41;;;;;;;40.22;25.88;;;-1.40;98.00;;;;;;5037516;28;20061;-65
2021/01/03 02:53:08;;;;;;;43.80;25.85;;;-1.40;98.00;;;;;;5038226;28;20025;-67
2021/01/03 02:55:35;;;;;;;38.80;23.55;;;-1.40;98.00;;;;;;5035957;28;20422;-66
2021/01/03 02:58:00;;;;;;;40.10;23.63;;;-1.40;98.00;;;;;;5037364;28;20030;-68
2021/01/03 03:00:33;;;;;;;35.80;22.02;;;-1.40;98.00;;;;;;5038358;28;20109;-66
2021/01/03 03:03:00;;;;;;;34.20;21.48;;;-1.40;98.00;;;;;;5038019;28;20405;-67
2021/01/03 03:05:26;;;;;;;30.77;20.13;;;-1.40;98.00;;;;;;5038135;28;20083;-66
2021/01/03 03:07:52;;;;;;;31.20;20.25;;;-1.40;98.00;;;;;;5038045;28;20415;-66
2021/01/03 03:10:19;;;;;;;33.72;21.42;;;-1.50;98.00;;;;;;5036903;28;20333;-67
2021/01/03 03:12:53;;;;;;;30.00;20.23;;;-1.50;98.00;;;;;;5037407;28;20143;-67
2021/01/03 03:15:22;;;;;;;35.13;20.70;;;-1.40;98.00;;;;;;5036828;28;20065;-66
2021/01/03 03:17:51;;;;;;;32.40;19.80;;;-1.40;98.00;;;;;;5036121;28;20018;-65
2021/01/03 03:20:17;;;;;;;30.92;20.08;;;-1.40;98.00;;;;;;5036663;28;20077;-66
2021/01/03 03:22:45;;;;;;;27.48;18.88;;;-1.50;98.00;;;;;;5037377;28;20449;-68
2021/01/03 03:25:12;;;;;;;27.67;19.05;;;-1.50;98.00;;;;;;5036486;28;20060;-66
2021/01/03 03:27:38;;;;;;;29.63;19.90;;;-1.50;98.00;;;;;;5037629;28;20481;-67
2021/01/03 03:30:10;;;;;;;34.70;20.02;;;-1.60;98.00;;;;;;5037892;28;20032;-68
2021/01/03 03:32:38;;;;;;;30.60;19.05;;;-1.50;98.00;;;;;;5034617;28;20029;-66
2021/01/03 03:35:06;;;;;;;26.52;19.10;;;-1.60;98.00;;;;;;5037675;28;20030;-65
2021/01/03 03:37:31;;;;;;;28.95;19.63;;;-1.60;98.00;;;;;;5037356;28;20026;-67
2021/01/03 03:39:57;;;;;;;31.00;20.00;;;-1.60;98.00;;;;;;5036243;28;20034;-67
2021/01/03 03:42:23;;;;;;;32.83;20.38;;;-1.60;98.00;;;;;;5037168;28;20029;-67
2021/01/03 03:44:58;;;;;;;29.30;19.10;;;-1.60;98.00;;;;;;5035865;28;20083;-66
2021/01/03 03:47:29;;;;;;;31.45;20.77;;;-1.60;98.00;;;;;;5037175;28;20386;-66
2021/01/03 03:49:56;;;;;;;28.30;19.50;;;-1.60;98.00;;;;;;5037202;28;20029;-67
2021/01/03 03:52:21;;;;;;;25.48;17.92;;;-1.60;98.00;;;;;;5036298;28;20030;-67
2021/01/03 03:54:50;;;;;;;30.52;20.30;;;-1.60;98.00;;;;;;5036211;28;20323;-66
2021/01/03 03:57:16;;;;;;;27.17;18.20;;;-1.60;98.00;;;;;;5035692;28;20112;-66
2021/01/03 03:59:41;;;;;;;28.27;19.58;;;-1.70;98.00;;;;;;5037449;28;20072;-66
2021/01/03 04:02:07;;;;;;;25.73;17.52;;;-1.60;98.00;;;;;;5036877;28;20036;-66
2021/01/03 04:04:32;;;;;;;28.42;18.52;;;-1.70;98.00;;;;;;5037332;28;20448;-68
2021/01/03 04:06:58;;;;;;;26.08;17.70;;;-1.70;98.00;;;;;;5036688;28;20029;-68
2021/01/03 04:09:26;;;;;;;27.17;18.50;;;-1.70;98.00;;;;;;5034653;28;20488;-67
2021/01/03 04:11:55;;;;;;;40.28;22.33;;;-1.70;98.00;;;;;;5035467;28;20434;-68
2021/01/03 04:14:23;;;;;;;28.00;20.13;;;-1.70;98.00;;;;;;5036264;28;20018;-68
2021/01/03 04:16:51;;;;;;;30.52;20.33;;;-1.70;98.00;;;;;;5036916;28;20334;-67
2021/01/03 04:19:17;;;;;;;30.55;20.02;;;-1.70;98.00;;;;;;5036642;28;20026;-67
2021/01/03 04:21:50;;;;;;;28.02;19.65;;;-1.70;98.00;;;;;;5036650;28;20029;-66
2021/01/03 04:24:15;;;;;;;28.40;19.08;;;-1.70;98.00;;;;;;5036924;28;20026;-67
2021/01/03 04:26:44;;;;;;;27.92;19.60;;;-1.70;98.00;;;;;;5035884;28;20353;-67
2021/01/03 04:29:09;;;;;;;32.80;20.85;;;-1.80;98.00;;;;;;5036692;28;20481;-68
2021/01/03 04:31:35;;;;;;;32.92;21.23;;;-1.80;98.00;;;;;;5036776;28;20108;-68
2021/01/03 04:34:00;;;;;;;32.00;19.00;;;-1.70;98.00;;;;;;5043902;28;20097;-67
2021/01/03 04:36:26;;;;;;;32.38;20.70;;;-1.70;98.00;;;;;;5035999;28;20028;-68
2021/01/03 04:38:52;;;;;;;31.02;18.80;;;-1.80;98.00;;;;;;5036225;28;20044;-68
2021/01/03 04:41:27;;;;;;;27.83;19.13;;;-1.80;98.00;;;;;;5035311;28;20044;-66
2021/01/03 04:43:59;;;;;;;27.23;18.40;;;-1.70;98.00;;;;;;5035775;28;20029;-66
2021/01/03 04:46:32;;;;;;;28.92;20.10;;;-1.70;98.00;;;;;;5035598;28;20036;-67
2021/01/03 04:49:00;;;;;;;27.87;20.00;;;-1.70;98.00;;;;;;5036106;28;20434;-68
2021/01/03 04:51:28;;;;;;;32.70;21.20;;;-1.80;98.00;;;;;;5036073;28;20052;-66
2021/01/03 04:54:11;;;;;;;28.70;18.60;;;-1.80;98.00;;;;;;5035826;28;20114;-66
2021/01/03 04:56:40;;;;;;;30.50;20.48;;;-1.80;98.00;;;;;;5035068;28;20025;-66
2021/01/03 04:59:08;;;;;;;30.88;20.60;;;-1.80;98.00;;;;;;5035695;28;20430;-66
2021/01/03 05:01:56;;;;;;;28.15;19.77;;;-1.80;98.00;;;;;;5036055;28;20030;-67
2021/01/03 05:04:40;;;;;;;30.38;20.13;;;-1.80;98.00;;;;;;5035039;28;20029;-68
2021/01/03 05:07:15;;;;;;;28.08;19.13;;;-1.80;98.00;;;;;;5034928;28;20436;-68
2021/01/03 05:09:43;;;;;;;33.22;19.90;;;-1.80;98.00;;;;;;5034047;28;20040;-66
2021/01/03 05:12:24;;;;;;;33.95;21.17;;;-1.80;98.00;;;;;;5033110;28;20476;-67
2021/01/03 05:15:02;;;;;;;28.27;19.60;;;-1.80;98.00;;;;;;5036113;28;20322;-66
2021/01/03 05:17:29;;;;;;;34.65;19.73;;;-1.80;98.00;;;;;;5035499;28;20030;-66
2021/01/03 05:19:54;;;;;;;30.95;19.75;;;-1.70;98.00;;;;;;5035605;28;20053;-65
2021/01/03 05:22:29;;;;;;;30.77;21.02;;;-1.70;98.00;;;;;;5035477;28;20056;-68
2021/01/03 05:25:00;;;;;;;26.95;18.40;;;-1.70;98.00;;;;;;5034629;28;20040;-66
2021/01/03 05:27:27;;;;;;;31.88;19.60;;;-1.70;98.00;;;;;;5035520;28;20463;-66
2021/01/03 05:30:09;;;;;;;29.05;19.50;;;-1.70;98.00;;;;;;5035662;28;20029;-68
2021/01/03 05:32:36;;;;;;;30.02;20.13;;;-1.70;98.00;;;;;;5033697;28;20437;-67
2021/01/03 05:35:15;;;;;;;32.97;20.95;;;-1.80;98.00;;;;;;5026473;28;20084;-67
2021/01/03 05:37:43;;;;;;;38.58;21.70;;;-1.80;98.00;;;;;;5034550;28;20350;-66
2021/01/03 05:40:25;;;;;;;30.80;21.38;;;-1.80;98.00;;;;;;5033494;28;20048;-67
2021/01/03 05:43:07;;;;;;;31.42;21.25;;;-1.70;98.00;;;;;;5034865;28;20021;-68
2021/01/03 05:45:33;;;;;;;27.45;19.15;;;-1.70;98.00;;;;;;5034328;28;20056;-67
2021/01/03 05:48:04;;;;;;;31.02;20.42;;;-1.60;98.00;;;;;;5034301;28;20025;-66
2021/01/03 05:50:40;;;;;;;32.83;21.27;;;-1.70;98.00;;;;;;5035031;28;20312;-66
2021/01/03 05:53:16;;;;;;;31.77;21.88;;;-1.70;98.00;;;;;;5035315;28;20430;-65
2021/01/03 05:55:52;;;;;;;34.38;21.55;;;-1.70;98.00;;;;;;5034109;28;20018;-65
2021/01/03 05:58:30;;;;;;;32.38;22.23;;;-1.70;98.00;;;;;;5034949;28;20036;-67
2021/01/03 06:01:14;;;;;;;30.77;21.00;;;-1.70;98.00;;;;;;5034841;28;20024;-66
2021/01/03 06:03:39;;;;;;;36.30;22.75;;;-1.70;98.00;;;;;;5033929;28;20028;-66
2021/01/03 06:06:24;;;;;;;48.78;24.67;;;-1.70;98.00;;;;;;5035119;28;20330;-67
2021/01/03 06:08:58;;;;;;;42.38;23.25;;;-1.70;98.00;;;;;;5033435;28;20107;-67
2021/01/03 06:11:24;;;;;;;;;;;-1.80;98.00;;;;;;5034572;28;20018;-66
2021/01/03 06:13:55;;;;;;;37.53;23.08;;;-1.80;98.00;;;;;;5034806;28;20294;-67
2021/01/03 06:16:30;;;;;;;34.92;23.13;;;-1.80;98.00;;;;;;5035193;28;20022;-66
2021/01/03 06:19:21;;;;;;;35.15;22.45;;;-1.80;98.00;;;;;;5034720;28;20025;-67
2021/01/03 06:21:47;;;;;;;32.63;22.05;;;-1.80;98.00;;;;;;5035368;28;20434;-65
2021/01/03 06:24:27;;;;;;;34.13;21.88;;;-1.80;98.00;;;;;;5034715;28;20109;-66
2021/01/03 06:27:00;;;;;;;31.30;22.13;;;-1.80;98.00;;;;;;5033198;28;20454;-68
2021/01/03 06:29:54;;;;;;;29.30;21.08;;;-1.70;98.00;;;;;;5033505;28;20032;-66
2021/01/03 06:32:33;;;;;;;31.70;19.15;;;-1.70;98.00;;;;;;5034252;28;20029;-67
2021/01/03 06:35:22;;;;;;;33.88;21.17;;;-1.70;98.00;;;;;;5034644;28;20060;-65
2021/01/03 06:38:04;;;;;;;31.63;20.33;;;-1.70;98.00;;;;;;5033967;28;20022;-68
2021/01/03 06:40:39;;;;;;;31.00;20.88;;;-1.80;98.00;;;;;;5032421;28;20422;-67
2021/01/03 06:43:30;;;;;;;32.33;21.23;;;-1.90;98.00;;;;;;5032120;28;20026;-66
2021/01/03 06:46:22;;;;;;;30.50;21.30;;;-1.80;98.00;;;;;;5034958;28;20323;-66
2021/01/03 06:49:02;;;;;;;35.67;22.08;;;-1.90;98.00;;;;;;5025013;28;20060;-67
2021/01/03 06:51:43;;;;;;;38.22;23.80;;;-1.90;98.00;;;;;;5035424;28;20056;-66
2021/01/03 06:54:47;;;;;;;37.10;23.42;;;-1.90;98.00;;;;;;5038704;28;20033;-67
2021/01/03 06:57:27;;;;;;;41.60;22.40;;;-1.90;98.00;;;;;;5015943;28;20040;-66
2021/01/03 07:00:11;;;;;;;36.60;22.23;;;-1.90;98.00;;;;;;5016761;28;20034;-69
2021/01/03 07:02:48;;;;;;;40.58;24.42;;;-1.90;98.00;;;;;;5029373;28;20147;-69
2021/01/03 07:05:15;;;;;;;39.72;25.23;;;-1.80;98.00;;;;;;5037759;28;20460;-69
2021/01/03 07:07:53;;;;;;;44.83;26.08;;;-1.80;98.00;;;;;;5037558;28;20109;-68
2021/01/03 07:10:29;;;;;;;37.00;24.65;;;-1.80;98.00;;;;;;5037061;28;20083;-69
2021/01/03 07:12:54;;;;;;;39.38;23.92;;;-1.90;98.00;;;;;;5037860;28;20017;-68
2021/01/03 07:15:26;;;;;;;41.47;25.58;;;-1.80;98.00;;;;;;5038329;28;20026;-68
2021/01/03 07:17:58;;;;;;;39.70;26.08;;;-1.80;98.00;;;;;;5037132;28;20026;-68
2021/01/03 07:20:54;;;;;;;40.50;27.33;;;-1.90;98.00;;;;;;5038257;28;20032;-68
2021/01/03 07:23:27;;;;;;;37.55;23.58;;;-1.80;98.00;;;;;;5036857;28;20039;-68
2021/01/03 07:26:04;;;;;;;34.10;22.30;;;-1.80;98.00;;;;;;5036985;28;20029;-68
2021/01/03 07:28:32;;;;;;;38.00;22.92;;;-1.70;98.00;;;;;;5037903;28;20025;-68
2021/01/03 07:31:10;;;;;;;39.85;25.30;;;-1.80;98.00;;;;;;5037904;28;20045;-68
2021/01/03 07:33:46;;;;;;;36.35;24.77;;;-1.80;98.00;;;;;;5037280;28;20025;-68
2021/01/03 07:36:36;;;;;;;34.00;23.23;;;-1.80;98.00;;;;;;5037056;28;20028;-68
2021/01/03 07:39:12;;;;;;;47.63;29.55;;;-1.80;98.00;;;;;;5034348;28;20033;-67
2021/01/03 07:41:39;;;;;;;35.40;24.67;;;-1.90;98.00;;;;;;5035987;28;20037;-67
2021/01/03 07:44:10;;;;;;;41.53;26.55;;;-1.80;98.00;;;;;;5037380;28;20025;-68
2021/01/03 07:46:57;;;;;;;44.83;26.83;;;-1.80;98.00;;;;;;5037804;28;20030;-68
2021/01/03 07:49:38;;;;;;;35.40;24.33;;;-1.70;98.00;;;;;;5037601;28;20116;-67
2021/01/03 07:52:29;;;;;;;36.03;24.00;;;-1.70;98.00;;;;;;5035567;28;20041;-69
2021/01/03 07:54:56;;;;;;;36.35;24.25;;;-1.70;98.00;;;;;;5035921;28;20026;-67
2021/01/03 07:57:27;;;;;;;38.35;25.90;;;-1.70;98.00;;;;;;5037907;28;20025;-67
2021/01/03 07:59:58;;;;;;;49.83;31.20;;;-1.80;98.00;;;;;;5037142;28;20291;-67
2021/01/03 08:02:31;;;;;;;44.50;29.60;;;-1.80;98.00;;;;;;5034696;28;20124;-68
2021/01/03 08:05:00;;;;;;;49.72;28.48;;;-1.80;98.00;;;;;;5037035;28;20080;-68
2021/01/03 08:07:26;;;;;;;43.63;25.20;;;-1.80;98.00;;;;;;5037159;28;20025;-66
2021/01/03 08:09:52;;;;;;;37.85;25.48;;;-1.70;98.00;;;;;;5035930;28;20036;-68
2021/01/03 08:12:30;;;;;;;34.72;23.17;;;-1.70;98.00;;;;;;5037356;28;20025;-66
2021/01/03 08:15:28;;;;;;;34.35;22.27;;;-1.70;98.00;;;;;;5036689;28;20025;-67
2021/01/03 08:18:02;;;;;;;42.15;26.35;;;-1.70;98.00;;;;;;5035190;28;20035;-67
2021/01/03 08:20:29;;;;;;;36.60;23.35;;;-1.70;98.00;;;;;;5016383;28;20034;-68
2021/01/03 08:23:06;;;;;;;40.45;23.27;;;-1.70;98.00;;;;;;5017738;28;20029;-67
2021/01/03 08:25:32;;;;;;;32.17;24.25;;;-1.60;98.00;;;;;;5035323;28;20308;-69
2021/01/03 08:28:12;;;;;;;36.28;24.02;;;-1.60;98.00;;;;;;5036116;28;20048;-66
2021/01/03 08:30:38;;;;;;;39.72;24.80;;;-1.60;98.00;;;;;;5035849;28;20041;-68
2021/01/03 08:33:29;;;;;;;35.95;23.33;;;-1.50;98.00;;;;;;5026100;28;20109;-68
2021/01/03 08:35:54;;;;;;;36.95;25.33;;;-1.50;98.00;;;;;;5024184;28;20091;-67
2021/01/03 08:38:29;;;;;;;36.58;23.45;;;-1.60;98.00;;;;;;5042674;28;20113;-66
2021/01/03 08:41:04;;;;;;;34.97;23.02;;;-1.50;98.00;;;;;;5034244;28;20091;-67
2021/01/03 08:43:31;;;;;;;32.65;22.10;;;-1.40;98.00;;;;;;5039377;28;20037;-67
2021/01/03 08:46:03;;;;;;;37.38;23.10;;;-1.50;98.00;;;;;;5035660;28;20033;-67
2021/01/03 08:48:30;;;;;;;34.92;23.15;;;-1.40;98.00;;;;;;5035188;28;20108;-68
2021/01/03 08:51:12;;;;;;;30.58;21.33;;;-1.40;98.00;;;;;;5036127;28;20115;-68
2021/01/03 08:53:40;;;;;;;33.72;22.17;;;-1.40;98.00;;;;;;5036702;28;20044;-68
2021/01/03 08:56:20;;;;;;;35.72;23.55;;;-1.40;98.00;;;;;;5034822;28;20028;-67
2021/01/03 08:58:47;;;;;;;36.88;24.33;;;-1.40;98.00;;;;;;5035981;28;20029;-67
2021/01/03 09:01:20;;;;;;;34.97;24.15;;;-1.50;98.00;;;;;;5036241;28;20026;-68
2021/01/03 09:03:51;;;;;;;34.83;25.40;;;-1.40;98.00;;;;;;5035678;28;20036;-68
2021/01/03 09:06:17;;;;;;;32.05;22.40;;;-1.30;98.00;;;;;;5035667;28;20079;-68
2021/01/03 09:08:44;;;;;;;29.27;21.70;;;-1.30;98.00;;;;;;5035353;28;20025;-69
2021/01/03 09:11:19;;;;;;;31.25;22.63;;;-1.40;98.00;;;;;;5039382;28;20017;-67
2021/01/03 09:14:08;;;;;;;31.83;22.27;;;-1.40;98.00;;;;;;5042386;28;20021;-69
2021/01/03 09:16:57;;;;;;;30.08;21.55;;;-1.30;98.00;;;;;;5035672;28;20014;-66
2021/01/03 09:19:36;;;;;;;29.92;20.88;;;-1.30;98.00;;;;;;5019015;28;20327;-67
2021/01/03 09:22:02;;;;;;;28.85;20.52;;;-1.30;98.00;;;;;;5033961;28;20025;-69
2021/01/03 09:24:30;;;;;;;34.65;21.67;;;-1.10;98.00;;;;;;5030850;28;20029;-67
2021/01/03 09:26:59;;;;;;;30.70;22.67;;;-1.00;98.00;;;;;;5031617;28;20497;-67
2021/01/03 09:29:34;;;;;;;27.45;20.17;;;-1.00;98.00;;;;;;5034468;28;20061;-68
2021/01/03 09:32:24;;;;;;;31.02;21.42;;;-0.90;98.00;;;;;;5032313;28;20025;-66
2021/01/03 09:35:01;;;;;;;30.02;20.40;;;-0.80;98.00;;;;;;5017282;28;20029;-66
2021/01/03 09:37:39;;;;;;;31.42;22.23;;;-0.80;98.00;;;;;;5034555;28;20018;-68
2021/01/03 09:40:32;;;;;;;29.55;21.23;;;-0.80;98.00;;;;;;5032870;28;20443;-67
2021/01/03 09:43:16;;;;;;;35.55;24.58;;;-0.80;98.00;;;;;;5032559;28;20441;-68
2021/01/03 09:46:10;;;;;;;79.85;42.63;;;-0.80;98.00;;;;;;5025799;28;20037;-66
2021/01/03 09:48:39;;;;;;;59.73;37.47;;;-0.80;98.00;;;;;;5027424;28;20030;-66
2021/01/03 09:51:14;;;;;;;32.80;21.15;;;-0.80;98.00;;;;;;5030297;28;20683;-66
2021/01/03 09:53:45;;;;;;;33.05;22.88;;;-0.80;98.00;;;;;;5033204;28;20029;-66
2021/01/03 09:56:38;;;;;;;32.08;21.83;;;-0.90;98.00;;;;;;5033101;28;20021;-68
2021/01/03 09:59:14;;;;;;;32.33;23.77;;;-1.00;98.00;;;;;;5030374;28;20408;-68
2021/01/03 10:01:40;;;;;;;32.80;23.60;;;-1.00;98.00;;;;;;5023957;28;20049;-68
2021/01/03 10:04:19;;;;;;;34.17;23.23;;;-1.00;98.00;;;;;;5033269;28;20042;-68
2021/01/03 10:06:53;;;;;;;33.13;22.40;;;-0.90;98.00;;;;;;5032545;28;20025;-68
2021/01/03 10:09:25;;;;;;;32.53;22.40;;;-0.90;98.00;;;;;;5030606;28;20087;-67
2021/01/03 10:11:52;;;;;;;30.67;20.98;;;-0.80;98.00;;;;;;5032255;28;20100;-67
2021/01/03 10:14:29;;;;;;;33.53;21.75;;;-0.70;98.00;;;;;;5027934;28;20022;-68
2021/01/03 10:17:11;;;;;;;33.33;23.08;;;-0.60;98.00;;;;;;5034827;28;20033;-68
2021/01/03 10:19:37;;;;;;;28.58;20.58;;;-0.50;98.00;;;;;;5028127;28;20482;-68
2021/01/03 10:22:02;;;;;;;29.38;19.40;;;-0.30;98.00;;;;;;5033698;28;20025;-68
2021/01/03 10:24:28;;;;;;;31.80;22.70;;;-0.20;98.00;;;;;;5034130;28;20102;-68
2021/01/03 10:27:06;;;;;;;35.03;22.55;;;-0.10;98.00;;;;;;5034275;28;20086;-68
2021/01/03 10:29:33;;;;;;;33.10;20.42;;;-0.10;98.00;;;;;;5038377;28;20025;-68
2021/01/03 10:31:59;;;;;;;29.65;19.60;;;0.10;98.00;;;;;;5036057;28;20326;-68
2021/01/03 10:34:25;;;;;;;28.75;20.73;;;0.20;98.00;;;;;;5038303;28;20037;-68
2021/01/03 10:36:59;;;;;;;26.80;16.98;;;0.30;98.00;;;;;;5033917;28;20034;-67
2021/01/03 10:39:30;;;;;;;25.58;17.65;;;0.40;98.00;;;;;;5031335;28;20160;-69
2021/01/03 10:41:56;;;;;;;25.92;18.77;;;0.60;98.00;;;;;;5024066;28;20049;-68
2021/01/03 10:44:22;;;;;;;29.73;19.58;;;0.70;98.00;;;;;;5038006;28;20440;-68
2021/01/03 10:46:49;;;;;;;25.42;18.42;;;0.60;98.00;;;;;;5037335;28;20057;-68
2021/01/03 10:49:15;;;;;;;21.67;15.68;;;0.60;98.00;;;;;;5036791;28;20036;-68
2021/01/03 10:51:43;;;;;;;32.40;20.80;;;0.80;98.00;;;;;;5034596;28;20056;-68
2021/01/03 10:54:12;;;;;;;28.70;20.88;;;0.80;98.00;;;;;;5037526;28;20024;-68
2021/01/03 10:56:38;;;;;;;23.15;16.25;;;0.90;98.00;;;;;;5035482;28;20038;-69
2021/01/03 10:59:05;;;;;;;23.20;16.15;;;1.00;98.00;;;;;;5037572;28;20386;-68
2021/01/03 11:01:31;;;;;;;25.25;16.13;;;1.10;98.00;;;;;;5035215;28;20033;-67
2021/01/03 11:03:56;;;;;;;23.98;15.70;;;1.30;98.00;;;;;;5028350;28;20022;-69
2021/01/03 11:06:22;;;;;;;22.92;16.42;;;1.30;98.00;;;;;;5032322;28;20555;-69
2021/01/03 11:08:48;;;;;;;22.10;15.57;;;1.00;98.00;;;;;;5037513;28;20096;-69
2021/01/03 11:11:20;;;;;;;19.92;14.07;;;1.10;98.00;;;;;;5036892;28;20095;-70
2021/01/03 11:13:47;;;;;;;19.42;13.73;;;1.60;97.80;;;;;;5037673;28;20399;-71
2021/01/03 11:16:12;;;;;;;23.73;15.52;;;1.80;96.40;;;;;;5035719;28;20088;-70
2021/01/03 11:18:38;;;;;;;24.23;15.80;;;2.10;94.90;;;;;;5030309;28;20022;-69
2021/01/03 11:21:13;;;;;;;22.40;16.00;;;2.50;94.20;;;;;;5030318;28;20068;-71
2021/01/03 11:23:38;;;;;;;18.55;13.18;;;2.70;93.60;;;;;;5038195;28;20083;-69
2021/01/03 11:26:04;;;;;;;25.85;14.65;;;2.20;92.90;;;;;;5034664;28;20029;-70
2021/01/03 11:28:30;;;;;;;22.92;15.10;;;1.70;95.00;;;;;;5033495;28;20091;-70
2021/01/03 11:30:55;;;;;;;24.70;15.43;;;1.80;95.60;;;;;;5032339;28;20033;-68
2021/01/03 11:33:24;;;;;;;20.30;14.70;;;1.80;95.90;;;;;;5033322;28;20037;-68
2021/01/03 11:35:50;;;;;;;19.90;14.65;;;1.80;95.90;;;;;;5030589;28;20017;-68
2021/01/03 11:38:16;;;;;;;23.77;16.20;;;1.90;95.70;;;;;;5051755;28;20029;-71
2021/01/03 11:40:42;;;;;;;25.13;16.35;;;2.30;95.10;;;;;;5053790;28;20033;-69
2021/01/03 11:43:07;;;;;;;25.58;15.93;;;2.80;93.20;;;;;;5035284;28;20139;-71
2021/01/03 11:45:33;;;;;;;25.55;14.65;;;2.90;91.60;;;;;;5033769;28;20064;-70
2021/01/03 11:47:58;;;;;;;22.60;14.68;;;3.00;91.00;;;;;;5033021;28;20091;-68
2021/01/03 11:50:24;;;;;;;20.98;15.30;;;3.20;91.00;;;;;;5027352;28;20072;-68
2021/01/03 11:52:50;;;;;;;21.98;16.25;;;3.40;90.20;;;;;;5030466;28;20037;-68
2021/01/03 11:55:18;;;;;;;21.52;15.77;;;3.10;90.00;;;;;;5026098;28;20468;-69
2021/01/03 11:57:45;;;;;;;23.25;14.52;;;2.70;91.30;;;;;;5033280;28;20033;-69
2021/01/03 12:00:13;;;;;;;18.80;13.40;;;2.30;91.90;;;;;;5034387;28;20492;-70
2021/01/03 12:02:40;;;;;;;24.88;14.80;;;2.20;92.40;;;;;;5033692;28;20038;-70
2021/01/03 12:05:08;;;;;;;20.52;14.77;;;2.30;92.70;;;;;;5034262;28;20445;-71
2021/01/03 12:07:33;;;;;;;22.90;15.02;;;2.30;92.30;;;;;;5033892;28;20037;-68
2021/01/03 12:09:59;;;;;;;26.55;17.30;;;2.20;92.50;;;;;;5039035;28;20857;-70
2021/01/03 12:12:33;;;;;;;26.90;17.48;;;1.90;93.20;;;;;;5033981;28;20030;-70
2021/01/03 12:15:07;;;;;;;25.13;16.17;;;1.90;94.40;;;;;;5033640;28;20108;-69
2021/01/03 12:17:32;;;;;;;27.58;15.90;;;2.00;94.30;;;;;;5040171;28;20318;-70
2021/01/03 12:19:58;;;;;;;21.27;15.60;;;1.70;93.90;;;;;;5033181;28;20033;-69
2021/01/03 12:22:24;;;;;;;22.38;15.05;;;1.60;94.80;;;;;;5037459;28;20300;-70
2021/01/03 12:24:49;;;;;;;23.63;15.32;;;1.70;94.90;;;;;;5029132;28;21275;-69
2021/01/03 12:27:17;;;;;;;22.38;15.90;;;1.80;94.00;;;;;;5030490;28;20511;-68
2021/01/03 12:29:43;;;;;;;22.08;15.27;;;1.60;94.10;;;;;;5028612;28;20033;-68
2021/01/03 12:32:10;;;;;;;18.70;14.05;;;1.50;94.80;;;;;;5028224;28;20057;-68
2021/01/03 12:34:36;;;;;;;23.10;16.67;;;1.60;94.90;;;;;;5032435;28;20545;-68
2021/01/03 12:37:20;;;;;;;23.58;16.63;;;1.60;94.70;;;;;;5028755;28;20104;-69
2021/01/03 12:39:46;;;;;;;20.70;15.65;;;1.60;95.00;;;;;;5027908;28;20029;-68
2021/01/03 12:42:16;;;;;;;24.20;17.20;;;1.50;95.20;;;;;;5029214;28;20040;-67
2021/01/03 12:44:43;;;;;;;28.25;20.17;;;1.50;95.70;;;;;;5029204;28;20045;-68
2021/01/03 12:47:08;;;;;;;26.15;16.35;;;1.50;95.70;;;;;;5029880;28;20048;-68
2021/01/03 12:49:34;;;;;;;18.05;13.45;;;1.50;95.80;;;;;;5031498;28;20025;-70
2021/01/03 12:52:00;;;;;;;27.90;19.08;;;1.50;95.80;;;;;;5032422;28;20045;-69